sensor_id;sensor_type;location;lat;lon;timestamp;pressure;altitude;pressure_sealevel;temperature;humidity
36222;BME280;22266;52.340;4.962;2022-11-15T00:00:55;100778.63;;;7.33;78.53
36222;BME280;22266;52.340;4.962;2022-11-15T00:03:40;100782.97;;;7.34;79.07
36222;BME280;22266;52.340;4.962;2022-11-15T00:06:25;100784.13;;;7.32;79.35
36222;BME280;22266;52.340;4.962;2022-11-15T00:09:10;100784.97;;;7.32;78.92
36222;BME280;22266;52.340;4.962;2022-11-15T00:11:54;100782.28;;;7.32;79.17
36222;BME280;22266;52.340;4.962;2022-11-15T00:14:39;100785.97;;;7.31;78.96
36222;BME280;22266;52.340;4.962;2022-11-15T00:17:24;100775.94;;;7.33;79.36
36222;BME280;22266;52.340;4.962;2022-11-15T00:20:10;100777.13;;;7.31;79.43
36222;BME280;22266;52.340;4.962;2022-11-15T00:22:56;100769.72;;;7.33;79.02
36222;BME280;22266;52.340;4.962;2022-11-15T00:25:41;100770.94;;;7.30;79.17
36222;BME280;22266;52.340;4.962;2022-11-15T00:28:26;100769.72;;;7.33;79.84
36222;BME280;22266;52.340;4.962;2022-11-15T00:31:14;100775.09;;;7.33;79.98
36222;BME280;22266;52.340;4.962;2022-11-15T00:33:59;100772.25;;;7.34;79.28
36222;BME280;22266;52.340;4.962;2022-11-15T00:36:44;100761.53;;;7.34;79.72
36222;BME280;22266;52.340;4.962;2022-11-15T00:39:29;100770.91;;;7.38;80.21
36222;BME280;22266;52.340;4.962;2022-11-15T00:42:14;100763.69;;;7.39;79.80
36222;BME280;22266;52.340;4.962;2022-11-15T00:44:58;100763.00;;;7.37;80.07
36222;BME280;22266;52.340;4.962;2022-11-15T00:47:44;100757.84;;;7.35;80.34
36222;BME280;22266;52.340;4.962;2022-11-15T00:50:30;100752.16;;;7.38;80.63
36222;BME280;22266;52.340;4.962;2022-11-15T00:53:16;100753.47;;;7.42;80.30
36222;BME280;22266;52.340;4.962;2022-11-15T00:56:01;100750.94;;;7.41;80.39
36222;BME280;22266;52.340;4.962;2022-11-15T00:58:46;100737.75;;;7.39;80.34
36222;BME280;22266;52.340;4.962;2022-11-15T01:01:32;100734.72;;;7.42;80.53
36222;BME280;22266;52.340;4.962;2022-11-15T01:04:17;100736.03;;;7.47;81.30
36222;BME280;22266;52.340;4.962;2022-11-15T01:07:02;100744.41;;;7.43;80.47
36222;BME280;22266;52.340;4.962;2022-11-15T01:09:47;100734.44;;;7.37;80.86
36222;BME280;22266;52.340;4.962;2022-11-15T01:12:32;100734.72;;;7.42;81.03
36222;BME280;22266;52.340;4.962;2022-11-15T01:15:17;100728.69;;;7.40;80.81
36222;BME280;22266;52.340;4.962;2022-11-15T01:18:03;100729.38;;;7.42;81.59
36222;BME280;22266;52.340;4.962;2022-11-15T01:20:48;100713.00;;;7.37;81.49
36222;BME280;22266;52.340;4.962;2022-11-15T01:23:33;100723.81;;;7.44;81.26
36222;BME280;22266;52.340;4.962;2022-11-15T01:26:19;100724.50;;;7.46;81.54
36222;BME280;22266;52.340;4.962;2022-11-15T01:29:04;100724.13;;;7.49;81.78
36222;BME280;22266;52.340;4.962;2022-11-15T01:31:49;100734.19;;;7.47;81.46
36222;BME280;22266;52.340;4.962;2022-11-15T01:34:34;100730.16;;;7.51;81.41
36222;BME280;22266;52.340;4.962;2022-11-15T01:37:19;100723.97;;;7.51;81.94
36222;BME280;22266;52.340;4.962;2022-11-15T01:40:05;100717.94;;;7.49;82.22
36222;BME280;22266;52.340;4.962;2022-11-15T01:42:50;100714.06;;;7.51;81.97
36222;BME280;22266;52.340;4.962;2022-11-15T01:45:34;100711.88;;;7.55;81.84
36222;BME280;22266;52.340;4.962;2022-11-15T01:48:20;100704.13;;;7.60;81.74
36222;BME280;22266;52.340;4.962;2022-11-15T01:51:09;100709.97;;;7.63;82.00
36222;BME280;22266;52.340;4.962;2022-11-15T01:53:59;100705.44;;;7.64;81.78
36222;BME280;22266;52.340;4.962;2022-11-15T01:56:53;100705.78;;;7.61;81.51
36222;BME280;22266;52.340;4.962;2022-11-15T01:59:42;100695.91;;;7.61;82.11
36222;BME280;22266;52.340;4.962;2022-11-15T02:02:28;100708.13;;;7.64;81.66
36222;BME280;22266;52.340;4.962;2022-11-15T02:05:13;100691.09;;;7.57;82.48
36222;BME280;22266;52.340;4.962;2022-11-15T02:07:59;100689.56;;;7.62;82.15
36222;BME280;22266;52.340;4.962;2022-11-15T02:10:48;100688.84;;;7.68;82.02
36222;BME280;22266;52.340;4.962;2022-11-15T02:13:36;100683.31;;;7.70;82.14
36222;BME280;22266;52.340;4.962;2022-11-15T02:22:57;100660.19;;;7.69;81.92
36222;BME280;22266;52.340;4.962;2022-11-15T02:28:56;100652.28;;;7.76;83.32
36222;BME280;22266;52.340;4.962;2022-11-15T02:35:44;100643.34;;;7.83;82.94
36222;BME280;22266;52.340;4.962;2022-11-15T02:38:47;100642.50;;;7.83;83.20
36222;BME280;22266;52.340;4.962;2022-11-15T02:41:50;100637.63;;;7.86;83.12
36222;BME280;22266;52.340;4.962;2022-11-15T02:44:40;100640.94;;;7.88;83.37
36222;BME280;22266;52.340;4.962;2022-11-15T02:47:30;100631.34;;;7.94;84.06
36222;BME280;22266;52.340;4.962;2022-11-15T02:50:20;100632.47;;;8.00;83.48
36222;BME280;22266;52.340;4.962;2022-11-15T02:53:07;100624.22;;;8.01;83.48
36222;BME280;22266;52.340;4.962;2022-11-15T02:55:53;100619.19;;;8.06;83.38
36222;BME280;22266;52.340;4.962;2022-11-15T02:58:53;100615.63;;;8.06;83.54
36222;BME280;22266;52.340;4.962;2022-11-15T03:05:13;100607.50;;;8.14;84.10
36222;BME280;22266;52.340;4.962;2022-11-15T03:08:11;100600.75;;;8.18;84.30
36222;BME280;22266;52.340;4.962;2022-11-15T03:17:15;100606.88;;;8.27;83.82
36222;BME280;22266;52.340;4.962;2022-11-15T03:19:59;100608.19;;;8.31;84.68
36222;BME280;22266;52.340;4.962;2022-11-15T03:22:47;100610.13;;;8.37;84.34
36222;BME280;22266;52.340;4.962;2022-11-15T03:25:35;100617.00;;;8.39;84.55
36222;BME280;22266;52.340;4.962;2022-11-15T03:28:29;100610.59;;;8.40;84.12
36222;BME280;22266;52.340;4.962;2022-11-15T03:31:19;100606.53;;;8.45;84.39
36222;BME280;22266;52.340;4.962;2022-11-15T03:34:41;100598.94;;;8.48;84.62
36222;BME280;22266;52.340;4.962;2022-11-15T03:37:34;100599.78;;;8.49;84.71
36222;BME280;22266;52.340;4.962;2022-11-15T03:40:25;100597.75;;;8.51;84.73
36222;BME280;22266;52.340;4.962;2022-11-15T03:43:32;100604.00;;;8.58;84.54
36222;BME280;22266;52.340;4.962;2022-11-15T03:46:32;100600.34;;;8.59;85.13
36222;BME280;22266;52.340;4.962;2022-11-15T03:49:25;100601.78;;;8.61;84.89
36222;BME280;22266;52.340;4.962;2022-11-15T03:52:12;100595.69;;;8.68;84.87
36222;BME280;22266;52.340;4.962;2022-11-15T03:55:03;100602.06;;;8.66;84.68
36222;BME280;22266;52.340;4.962;2022-11-15T03:57:54;100599.56;;;8.65;85.68
36222;BME280;22266;52.340;4.962;2022-11-15T04:00:42;100600.41;;;8.65;85.56
36222;BME280;22266;52.340;4.962;2022-11-15T04:03:27;100593.47;;;8.71;85.75
36222;BME280;22266;52.340;4.962;2022-11-15T04:06:12;100594.09;;;8.73;85.83
36222;BME280;22266;52.340;4.962;2022-11-15T04:08:57;100599.72;;;8.78;85.85
36222;BME280;22266;52.340;4.962;2022-11-15T04:11:42;100589.44;;;8.82;85.53
36222;BME280;22266;52.340;4.962;2022-11-15T04:14:27;100584.66;;;8.77;86.29
36222;BME280;22266;52.340;4.962;2022-11-15T04:17:12;100587.78;;;8.81;86.74
36222;BME280;22266;52.340;4.962;2022-11-15T04:19:56;100594.25;;;8.86;87.00
36222;BME280;22266;52.340;4.962;2022-11-15T04:23:03;100589.34;;;8.90;86.31
36222;BME280;22266;52.340;4.962;2022-11-15T04:26:10;100593.13;;;8.96;86.18
36222;BME280;22266;52.340;4.962;2022-11-15T04:28:55;100590.44;;;8.96;86.38
36222;BME280;22266;52.340;4.962;2022-11-15T04:32:00;100591.72;;;9.00;86.21
36222;BME280;22266;52.340;4.962;2022-11-15T04:34:45;100593.19;;;9.02;86.85
36222;BME280;22266;52.340;4.962;2022-11-15T04:37:30;100584.09;;;9.03;86.62
36222;BME280;22266;52.340;4.962;2022-11-15T04:40:15;100576.50;;;9.07;86.20
36222;BME280;22266;52.340;4.962;2022-11-15T04:43:00;100579.19;;;9.07;87.03
36222;BME280;22266;52.340;4.962;2022-11-15T04:45:47;100580.47;;;9.11;86.99
36222;BME280;22266;52.340;4.962;2022-11-15T04:48:32;100577.22;;;9.15;86.91
36222;BME280;22266;52.340;4.962;2022-11-15T04:51:17;100577.03;;;9.17;86.66
36222;BME280;22266;52.340;4.962;2022-11-15T04:54:02;100572.94;;;9.21;86.86
36222;BME280;22266;52.340;4.962;2022-11-15T04:56:47;100574.41;;;9.24;86.31
36222;BME280;22266;52.340;4.962;2022-11-15T04:59:32;100571.53;;;9.25;86.64
36222;BME280;22266;52.340;4.962;2022-11-15T05:02:17;100565.56;;;9.30;86.11
36222;BME280;22266;52.340;4.962;2022-11-15T05:05:02;100574.84;;;9.27;86.73
36222;BME280;22266;52.340;4.962;2022-11-15T05:07:47;100579.84;;;9.30;86.38
36222;BME280;22266;52.340;4.962;2022-11-15T05:10:32;100588.72;;;9.31;86.62
36222;BME280;22266;52.340;4.962;2022-11-15T05:13:17;100588.34;;;9.34;86.76
36222;BME280;22266;52.340;4.962;2022-11-15T05:16:02;100589.16;;;9.34;87.00
36222;BME280;22266;52.340;4.962;2022-11-15T05:18:51;100599.53;;;9.37;86.87
36222;BME280;22266;52.340;4.962;2022-11-15T05:21:36;100606.56;;;9.38;86.95
36222;BME280;22266;52.340;4.962;2022-11-15T05:24:20;100595.81;;;9.38;87.17
36222;BME280;22266;52.340;4.962;2022-11-15T05:27:05;100601.56;;;9.35;87.21
36222;BME280;22266;52.340;4.962;2022-11-15T05:29:50;100598.34;;;9.40;87.39
36222;BME280;22266;52.340;4.962;2022-11-15T05:32:36;100597.31;;;9.41;86.91
36222;BME280;22266;52.340;4.962;2022-11-15T05:35:52;100599.41;;;9.46;87.05
36222;BME280;22266;52.340;4.962;2022-11-15T05:38:39;100603.75;;;9.47;87.02
36222;BME280;22266;52.340;4.962;2022-11-15T05:41:40;100604.19;;;9.50;87.21
36222;BME280;22266;52.340;4.962;2022-11-15T05:44:27;100607.13;;;9.55;86.77
36222;BME280;22266;52.340;4.962;2022-11-15T05:47:19;100603.44;;;9.56;87.13
36222;BME280;22266;52.340;4.962;2022-11-15T05:50:06;100603.59;;;9.55;86.88
36222;BME280;22266;52.340;4.962;2022-11-15T05:52:51;100606.69;;;9.52;86.84
36222;BME280;22266;52.340;4.962;2022-11-15T05:55:38;100602.56;;;9.56;87.02
36222;BME280;22266;52.340;4.962;2022-11-15T05:58:23;100609.44;;;9.58;86.87
36222;BME280;22266;52.340;4.962;2022-11-15T06:01:08;100602.41;;;9.57;87.24
36222;BME280;22266;52.340;4.962;2022-11-15T06:03:53;100610.91;;;9.61;87.21
36222;BME280;22266;52.340;4.962;2022-11-15T06:06:38;100610.50;;;9.64;87.44
36222;BME280;22266;52.340;4.962;2022-11-15T06:09:23;100610.13;;;9.67;86.89
36222;BME280;22266;52.340;4.962;2022-11-15T06:12:08;100615.31;;;9.69;86.75
36222;BME280;22266;52.340;4.962;2022-11-15T06:14:52;100617.16;;;9.68;86.81
36222;BME280;22266;52.340;4.962;2022-11-15T06:17:37;100624.84;;;9.71;87.04
36222;BME280;22266;52.340;4.962;2022-11-15T06:20:23;100621.13;;;9.72;86.61
36222;BME280;22266;52.340;4.962;2022-11-15T06:23:09;100621.13;;;9.72;87.24
36222;BME280;22266;52.340;4.962;2022-11-15T06:25:57;100629.84;;;9.74;86.70
36222;BME280;22266;52.340;4.962;2022-11-15T06:28:42;100630.28;;;9.78;86.47
36222;BME280;22266;52.340;4.962;2022-11-15T06:31:27;100627.97;;;9.75;86.26
36222;BME280;22266;52.340;4.962;2022-11-15T06:34:12;100635.00;;;9.76;86.62
36222;BME280;22266;52.340;4.962;2022-11-15T06:36:57;100636.69;;;9.77;86.86
36222;BME280;22266;52.340;4.962;2022-11-15T06:39:42;100636.47;;;9.78;86.54
36222;BME280;22266;52.340;4.962;2022-11-15T06:42:27;100642.69;;;9.79;86.68
36222;BME280;22266;52.340;4.962;2022-11-15T06:45:12;100638.97;;;9.80;86.26
36222;BME280;22266;52.340;4.962;2022-11-15T06:47:57;100637.53;;;9.77;86.48
36222;BME280;22266;52.340;4.962;2022-11-15T06:50:42;100640.44;;;9.82;86.26
36222;BME280;22266;52.340;4.962;2022-11-15T06:53:28;100653.06;;;9.82;86.57
36222;BME280;22266;52.340;4.962;2022-11-15T06:56:14;100645.81;;;9.82;86.39
36222;BME280;22266;52.340;4.962;2022-11-15T06:58:59;100647.31;;;9.85;86.33
36222;BME280;22266;52.340;4.962;2022-11-15T07:01:44;100654.34;;;9.86;86.28
36222;BME280;22266;52.340;4.962;2022-11-15T07:04:29;100655.53;;;9.83;86.65
36222;BME280;22266;52.340;4.962;2022-11-15T07:07:14;100655.53;;;9.83;86.39
36222;BME280;22266;52.340;4.962;2022-11-15T07:09:59;100649.53;;;9.81;86.20
36222;BME280;22266;52.340;4.962;2022-11-15T07:12:47;100650.56;;;9.80;86.26
36222;BME280;22266;52.340;4.962;2022-11-15T07:15:33;100653.44;;;9.79;86.61
36222;BME280;22266;52.340;4.962;2022-11-15T07:18:18;100647.03;;;9.80;87.00
36222;BME280;22266;52.340;4.962;2022-11-15T07:21:05;100656.38;;;9.84;86.69
36222;BME280;22266;52.340;4.962;2022-11-15T07:23:51;100659.50;;;9.87;86.49
36222;BME280;22266;52.340;4.962;2022-11-15T07:26:36;100652.41;;;9.80;86.75
36222;BME280;22266;52.340;4.962;2022-11-15T07:29:21;100657.41;;;9.83;86.69
36222;BME280;22266;52.340;4.962;2022-11-15T07:32:06;100652.81;;;9.77;86.55
36222;BME280;22266;52.340;4.962;2022-11-15T07:34:51;100648.72;;;9.81;86.67
36222;BME280;22266;52.340;4.962;2022-11-15T07:37:35;100646.03;;;9.81;86.66
36222;BME280;22266;52.340;4.962;2022-11-15T07:40:20;100651.19;;;9.82;86.59
36222;BME280;22266;52.340;4.962;2022-11-15T07:43:07;100650.81;;;9.85;86.45
36222;BME280;22266;52.340;4.962;2022-11-15T07:45:52;100654.53;;;9.84;86.56
36222;BME280;22266;52.340;4.962;2022-11-15T07:48:43;100656.97;;;9.79;86.28
36222;BME280;22266;52.340;4.962;2022-11-15T07:51:29;100663.44;;;9.85;86.68
36222;BME280;22266;52.340;4.962;2022-11-15T07:54:14;100656.19;;;9.85;86.38
36222;BME280;22266;52.340;4.962;2022-11-15T07:56:58;100648.31;;;9.84;86.60
36222;BME280;22266;52.340;4.962;2022-11-15T07:59:50;100650.63;;;9.87;86.23
36222;BME280;22266;52.340;4.962;2022-11-15T08:02:35;100638.81;;;9.88;86.24
36222;BME280;22266;52.340;4.962;2022-11-15T08:05:20;100642.38;;;9.88;86.18
36222;BME280;22266;52.340;4.962;2022-11-15T08:08:07;100640.97;;;9.93;86.63
36222;BME280;22266;52.340;4.962;2022-11-15T08:10:52;100643.06;;;9.97;85.64
36222;BME280;22266;52.340;4.962;2022-11-15T08:13:37;100641.38;;;9.96;86.28
36222;BME280;22266;52.340;4.962;2022-11-15T08:16:22;100646.56;;;9.98;86.39
36222;BME280;22266;52.340;4.962;2022-11-15T08:19:07;100636.44;;;10.00;86.48
36222;BME280;22266;52.340;4.962;2022-11-15T08:21:51;100645.16;;;10.02;86.35
36222;BME280;22266;52.340;4.962;2022-11-15T08:24:36;100639.78;;;10.02;85.94
36222;BME280;22266;52.340;4.962;2022-11-15T08:27:21;100625.25;;;9.96;86.06
36222;BME280;22266;52.340;4.962;2022-11-15T08:30:07;100628.38;;;10.00;86.21
36222;BME280;22266;52.340;4.962;2022-11-15T08:32:53;100622.41;;;10.04;86.23
36222;BME280;22266;52.340;4.962;2022-11-15T08:35:39;100624.25;;;10.04;86.09
36222;BME280;22266;52.340;4.962;2022-11-15T08:38:26;100612.09;;;10.08;85.92
36222;BME280;22266;52.340;4.962;2022-11-15T08:41:15;100616.50;;;10.15;86.44
36222;BME280;22266;52.340;4.962;2022-11-15T08:44:01;100614.00;;;10.14;85.74
36222;BME280;22266;52.340;4.962;2022-11-15T08:46:46;100613.19;;;10.13;86.03
36222;BME280;22266;52.340;4.962;2022-11-15T08:49:31;100609.06;;;10.18;86.14
36222;BME280;22266;52.340;4.962;2022-11-15T08:52:16;100616.72;;;10.21;85.63
36222;BME280;22266;52.340;4.962;2022-11-15T08:55:01;100609.88;;;10.18;85.74
36222;BME280;22266;52.340;4.962;2022-11-15T08:57:45;100606.41;;;10.24;85.94
36222;BME280;22266;52.340;4.962;2022-11-15T09:00:30;100600.03;;;10.25;85.08
36222;BME280;22266;52.340;4.962;2022-11-15T09:03:16;100599.19;;;10.25;84.93
36222;BME280;22266;52.340;4.962;2022-11-15T09:06:00;100608.03;;;10.19;84.72
36222;BME280;22266;52.340;4.962;2022-11-15T09:08:45;100606.88;;;10.28;84.96
36222;BME280;22266;52.340;4.962;2022-11-15T09:11:32;100607.06;;;10.26;84.98
36222;BME280;22266;52.340;4.962;2022-11-15T09:14:17;100599.88;;;10.33;85.06
36222;BME280;22266;52.340;4.962;2022-11-15T09:17:03;100603.84;;;10.44;84.38
36222;BME280;22266;52.340;4.962;2022-11-15T09:19:47;100603.41;;;10.40;84.54
36222;BME280;22266;52.340;4.962;2022-11-15T09:22:32;100605.28;;;10.40;84.02
36222;BME280;22266;52.340;4.962;2022-11-15T09:25:17;100596.59;;;10.45;84.03
36222;BME280;22266;52.340;4.962;2022-11-15T09:28:05;100603.66;;;10.46;84.14
36222;BME280;22266;52.340;4.962;2022-11-15T09:31:09;100596.44;;;10.53;83.77
36222;BME280;22266;52.340;4.962;2022-11-15T09:33:54;100596.28;;;10.61;83.66
36222;BME280;22266;52.340;4.962;2022-11-15T09:36:39;100591.75;;;10.61;83.23
36222;BME280;22266;52.340;4.962;2022-11-15T09:39:24;100587.19;;;10.69;82.95
36222;BME280;22266;52.340;4.962;2022-11-15T09:45:32;100593.41;;;10.69;82.41
36222;BME280;22266;52.340;4.962;2022-11-15T09:48:59;100597.81;;;10.83;81.55
36222;BME280;22266;52.340;4.962;2022-11-15T09:51:50;100591.81;;;10.88;81.58
36222;BME280;22266;52.340;4.962;2022-11-15T09:54:28;100594.75;;;11.00;80.76
36222;BME280;22266;52.340;4.962;2022-11-15T09:57:20;100597.28;;;11.14;80.44
36222;BME280;22266;52.340;4.962;2022-11-15T10:05:18;100593.50;;;10.96;79.66
36222;BME280;22266;52.340;4.962;2022-11-15T10:08:20;100584.78;;;10.87;79.33
36222;BME280;22266;52.340;4.962;2022-11-15T10:10:57;100582.28;;;10.85;79.84
36222;BME280;22266;52.340;4.962;2022-11-15T10:13:46;100584.31;;;10.77;79.77
36222;BME280;22266;52.340;4.962;2022-11-15T10:19:10;100585.22;;;10.97;79.07
36222;BME280;22266;52.340;4.962;2022-11-15T10:24:35;100564.97;;;11.14;78.22
36222;BME280;22266;52.340;4.962;2022-11-15T10:27:12;100561.84;;;11.11;78.31
36222;BME280;22266;52.340;4.962;2022-11-15T10:29:47;100545.88;;;11.03;77.80
36222;BME280;22266;52.340;4.962;2022-11-15T10:32:17;100542.16;;;11.04;77.83
36222;BME280;22266;52.340;4.962;2022-11-15T10:34:47;100544.63;;;10.99;78.00
36222;BME280;22266;52.340;4.962;2022-11-15T10:37:14;100527.81;;;10.97;78.12
36222;BME280;22266;52.340;4.962;2022-11-15T10:39:40;100527.63;;;11.05;77.98
36222;BME280;22266;52.340;4.962;2022-11-15T10:42:28;100512.72;;;11.02;77.70
36222;BME280;22266;52.340;4.962;2022-11-15T10:44:54;100518.31;;;11.07;77.72
36222;BME280;22266;52.340;4.962;2022-11-15T10:47:27;100516.25;;;11.09;77.68
36222;BME280;22266;52.340;4.962;2022-11-15T10:52:22;100509.81;;;11.17;77.14
36222;BME280;22266;52.340;4.962;2022-11-15T10:55:19;100515.00;;;11.25;77.26
36222;BME280;22266;52.340;4.962;2022-11-15T10:57:53;100499.47;;;11.34;76.53
36222;BME280;22266;52.340;4.962;2022-11-15T11:05:36;100500.72;;;11.31;75.76
36222;BME280;22266;52.340;4.962;2022-11-15T11:08:22;100493.47;;;11.25;75.69
36222;BME280;22266;52.340;4.962;2022-11-15T11:10:55;100487.84;;;11.33;75.22
36222;BME280;22266;52.340;4.962;2022-11-15T11:13:30;100485.16;;;11.33;75.01
36222;BME280;22266;52.340;4.962;2022-11-15T11:19:08;100491.59;;;11.52;74.22
36222;BME280;22266;52.340;4.962;2022-11-15T11:22:02;100489.50;;;11.68;73.92
36222;BME280;22266;52.340;4.962;2022-11-15T11:24:38;100479.94;;;11.72;73.78
36222;BME280;22266;52.340;4.962;2022-11-15T11:27:21;100481.59;;;11.66;73.64
36222;BME280;22266;52.340;4.962;2022-11-15T11:30:04;100484.94;;;11.61;73.72
36222;BME280;22266;52.340;4.962;2022-11-15T11:38:44;100486.41;;;11.57;73.16
36222;BME280;22266;52.340;4.962;2022-11-15T11:41:26;100468.56;;;11.50;73.18
36222;BME280;22266;52.340;4.962;2022-11-15T11:44:23;100464.84;;;11.51;73.06
36222;BME280;22266;52.340;4.962;2022-11-15T11:49:29;100462.75;;;11.53;72.97
36222;BME280;22266;52.340;4.962;2022-11-15T11:52:30;100449.69;;;11.56;73.00
36222;BME280;22266;52.340;4.962;2022-11-15T11:55:12;100443.03;;;11.66;72.78
36222;BME280;22266;52.340;4.962;2022-11-15T11:58:03;100439.28;;;11.80;72.15
36222;BME280;22266;52.340;4.962;2022-11-15T12:00:34;100425.38;;;11.76;71.42
36222;BME280;22266;52.340;4.962;2022-11-15T12:03:45;100416.72;;;11.68;71.17
36222;BME280;22266;52.340;4.962;2022-11-15T12:05:56;100420.88;;;11.63;71.48
36222;BME280;22266;52.340;4.962;2022-11-15T12:08:47;100409.88;;;11.58;72.01
36222;BME280;22266;52.340;4.962;2022-11-15T12:14:04;100403.00;;;11.62;71.86
36222;BME280;22266;52.340;4.962;2022-11-15T12:16:32;100398.47;;;11.63;71.36
36222;BME280;22266;52.340;4.962;2022-11-15T12:19:01;100400.53;;;11.68;71.14
36222;BME280;22266;52.340;4.962;2022-11-15T12:21:48;100402.75;;;11.77;71.02
36222;BME280;22266;52.340;4.962;2022-11-15T12:24:27;100396.78;;;11.75;70.90
36222;BME280;22266;52.340;4.962;2022-11-15T12:27:04;100375.84;;;11.64;70.86
36222;BME280;22266;52.340;4.962;2022-11-15T12:29:37;100369.19;;;11.67;70.69
36222;BME280;22266;52.340;4.962;2022-11-15T12:34:46;100371.63;;;11.81;70.61
36222;BME280;22266;52.340;4.962;2022-11-15T12:40:24;100376.44;;;11.73;70.87
36222;BME280;22266;52.340;4.962;2022-11-15T12:45:32;100362.31;;;11.77;70.44
36222;BME280;22266;52.340;4.962;2022-11-15T12:50:55;100341.81;;;11.83;70.47
36222;BME280;22266;52.340;4.962;2022-11-15T12:58:57;100334.72;;;11.88;70.48
36222;BME280;22266;52.340;4.962;2022-11-15T13:12:07;100317.84;;;12.00;69.62
36222;BME280;22266;52.340;4.962;2022-11-15T13:17:36;100315.75;;;12.02;69.39
36222;BME280;22266;52.340;4.962;2022-11-15T13:33:36;100278.25;;;11.94;68.47
36222;BME280;22266;52.340;4.962;2022-11-15T13:36:07;100285.91;;;11.97;67.94
36222;BME280;22266;52.340;4.962;2022-11-15T13:38:37;100279.06;;;11.94;68.06
36222;BME280;22266;52.340;4.962;2022-11-15T13:41:19;100277.19;;;11.95;68.05
36222;BME280;22266;52.340;4.962;2022-11-15T13:43:47;100274.69;;;12.00;67.58
36222;BME280;22266;52.340;4.962;2022-11-15T13:46:28;100272.66;;;11.95;68.05
36222;BME280;22266;52.340;4.962;2022-11-15T13:48:57;100260.84;;;11.90;67.74
36222;BME280;22266;52.340;4.962;2022-11-15T13:51:52;100258.53;;;11.93;67.79
36222;BME280;22266;52.340;4.962;2022-11-15T13:54:25;100259.44;;;11.87;68.00
36222;BME280;22266;52.340;4.962;2022-11-15T13:56:58;100253.63;;;11.83;68.22
36222;BME280;22266;52.340;4.962;2022-11-15T13:59:29;100251.38;;;11.74;68.16
36222;BME280;22266;52.340;4.962;2022-11-15T14:01:59;100243.09;;;11.75;67.27
36222;BME280;22266;52.340;4.962;2022-11-15T14:04:29;100249.50;;;11.74;67.33
36222;BME280;22266;52.340;4.962;2022-11-15T14:06:57;100244.59;;;11.64;67.53
36222;BME280;22266;52.340;4.962;2022-11-15T14:09:36;100246.03;;;11.67;67.64
36222;BME280;22266;52.340;4.962;2022-11-15T14:14:48;100228.00;;;11.61;67.87
36222;BME280;22266;52.340;4.962;2022-11-15T14:17:35;100222.03;;;11.59;68.50
36222;BME280;22266;52.340;4.962;2022-11-15T14:20:02;100213.53;;;11.55;68.41
36222;BME280;22266;52.340;4.962;2022-11-15T14:22:57;100213.53;;;11.55;68.15
36222;BME280;22266;52.340;4.962;2022-11-15T14:25:28;100207.50;;;11.60;68.58
36222;BME280;22266;52.340;4.962;2022-11-15T14:30:49;100200.91;;;11.49;68.34
36222;BME280;22266;52.340;4.962;2022-11-15T14:35:51;100198.22;;;11.49;68.69
36222;BME280;22266;52.340;4.962;2022-11-15T14:38:18;100194.28;;;11.52;68.73
36222;BME280;22266;52.340;4.962;2022-11-15T14:40:44;100183.50;;;11.45;68.84
36222;BME280;22266;52.340;4.962;2022-11-15T14:43:11;100179.78;;;11.46;68.49
36222;BME280;22266;52.340;4.962;2022-11-15T14:45:39;100175.22;;;11.47;68.58
36222;BME280;22266;52.340;4.962;2022-11-15T14:48:05;100167.78;;;11.42;68.34
36222;BME280;22266;52.340;4.962;2022-11-15T14:50:32;100159.69;;;11.42;68.61
36222;BME280;22266;52.340;4.962;2022-11-15T14:52:59;100161.56;;;11.42;68.63
36222;BME280;22266;52.340;4.962;2022-11-15T14:55:34;100152.00;;;11.46;69.04
36222;BME280;22266;52.340;4.962;2022-11-15T14:58:03;100157.63;;;11.44;68.38
36222;BME280;22266;52.340;4.962;2022-11-15T15:00:31;100154.50;;;11.47;68.31
36222;BME280;22266;52.340;4.962;2022-11-15T15:03:01;100141.84;;;11.48;68.32
36222;BME280;22266;52.340;4.962;2022-11-15T15:05:41;100146.59;;;11.46;68.58
36222;BME280;22266;52.340;4.962;2022-11-15T15:08:08;100143.16;;;11.38;68.34
36222;BME280;22266;52.340;4.962;2022-11-15T15:10:43;100139.00;;;11.36;68.83
36222;BME280;22266;52.340;4.962;2022-11-15T15:13:19;100126.53;;;11.42;68.35
36222;BME280;22266;52.340;4.962;2022-11-15T15:15:46;100113.94;;;11.35;68.50
36222;BME280;22266;52.340;4.962;2022-11-15T15:18:13;100114.53;;;11.37;68.39
36222;BME280;22266;52.340;4.962;2022-11-15T15:20:41;100113.94;;;11.35;68.52
36222;BME280;22266;52.340;4.962;2022-11-15T15:23:15;100128.63;;;11.39;68.83
36222;BME280;22266;52.340;4.962;2022-11-15T15:25:43;100108.56;;;11.35;68.68
36222;BME280;22266;52.340;4.962;2022-11-15T15:28:12;100102.94;;;11.37;67.94
36222;BME280;22266;52.340;4.962;2022-11-15T15:30:39;100100.31;;;11.24;68.68
36222;BME280;22266;52.340;4.962;2022-11-15T15:33:05;100099.09;;;11.26;68.61
36222;BME280;22266;52.340;4.962;2022-11-15T15:35:33;100102.38;;;11.28;68.33
36222;BME280;22266;52.340;4.962;2022-11-15T15:38:00;100095.28;;;11.34;67.85
36222;BME280;22266;52.340;4.962;2022-11-15T15:40:29;100097.53;;;11.37;68.14
36222;BME280;22266;52.340;4.962;2022-11-15T15:42:55;100095.28;;;11.34;67.80
36222;BME280;22266;52.340;4.962;2022-11-15T15:45:22;100078.94;;;11.29;67.88
36222;BME280;22266;52.340;4.962;2022-11-15T15:47:48;100083.28;;;11.30;67.65
36222;BME280;22266;52.340;4.962;2022-11-15T15:50:29;100079.50;;;11.37;67.78
36222;BME280;22266;52.340;4.962;2022-11-15T15:52:58;100084.31;;;11.35;67.63
36222;BME280;22266;52.340;4.962;2022-11-15T15:55:26;100079.50;;;11.37;67.63
36222;BME280;22266;52.340;4.962;2022-11-15T15:57:53;100074.91;;;11.45;67.58
36222;BME280;22266;52.340;4.962;2022-11-15T16:00:20;100076.34;;;11.47;67.05
36222;BME280;22266;52.340;4.962;2022-11-15T16:02:47;100073.84;;;11.46;66.80
36222;BME280;22266;52.340;4.962;2022-11-15T16:05:14;100078.66;;;11.44;67.37
36222;BME280;22266;52.340;4.962;2022-11-15T16:07:43;100073.03;;;11.45;66.74